sensor_id;sensor_type;location;lat;lon;timestamp;temperature;humidity
53314;DHT22;39202;51.468;7.146;2023-03-31T00:02:33;23.10;44.10
53314;DHT22;39202;51.468;7.146;2023-03-31T00:07:36;23.10;44.10
53314;DHT22;39202;51.468;7.146;2023-03-31T00:12:38;23.10;44.10
53314;DHT22;39202;51.468;7.146;2023-03-31T00:17:41;23.10;44.10
53314;DHT22;39202;51.468;7.146;2023-03-31T00:22:43;23.10;44.10
53314;DHT22;39202;51.468;7.146;2023-03-31T00:27:46;23.10;44.10
53314;DHT22;39202;51.468;7.146;2023-03-31T00:32:51;23.00;44.10
53314;DHT22;39202;51.468;7.146;2023-03-31T00:37:52;23.00;44.10
53314;DHT22;39202;51.468;7.146;2023-03-31T00:42:57;23.00;44.10
53314;DHT22;39202;51.468;7.146;2023-03-31T00:48:05;23.00;44.10
53314;DHT22;39202;51.468;7.146;2023-03-31T00:53:12;23.00;44.10
53314;DHT22;39202;51.468;7.146;2023-03-31T00:58:16;23.00;44.10
53314;DHT22;39202;51.468;7.146;2023-03-31T01:03:22;23.00;44.10
53314;DHT22;39202;51.468;7.146;2023-03-31T01:08:25;23.00;44.10
53314;DHT22;39202;51.468;7.146;2023-03-31T01:13:29;23.00;44.20
53314;DHT22;39202;51.468;7.146;2023-03-31T01:18:32;23.00;44.10
53314;DHT22;39202;51.468;7.146;2023-03-31T01:23:54;23.00;44.10
53314;DHT22;39202;51.468;7.146;2023-03-31T01:29:04;23.00;44.20
53314;DHT22;39202;51.468;7.146;2023-03-31T01:34:46;22.90;44.10
53314;DHT22;39202;51.468;7.146;2023-03-31T01:40:24;22.90;44.20
53314;DHT22;39202;51.468;7.146;2023-03-31T01:45:39;22.90;44.10
53314;DHT22;39202;51.468;7.146;2023-03-31T01:50:47;22.90;44.10
53314;DHT22;39202;51.468;7.146;2023-03-31T01:56:00;22.90;44.20
53314;DHT22;39202;51.468;7.146;2023-03-31T02:01:07;22.90;44.20
53314;DHT22;39202;51.468;7.146;2023-03-31T02:06:17;22.80;44.10
53314;DHT22;39202;51.468;7.146;2023-03-31T02:11:23;22.90;44.20
53314;DHT22;39202;51.468;7.146;2023-03-31T02:16:27;22.90;44.20
53314;DHT22;39202;51.468;7.146;2023-03-31T02:21:31;22.80;44.10
53314;DHT22;39202;51.468;7.146;2023-03-31T02:26:38;22.90;44.20
53314;DHT22;39202;51.468;7.146;2023-03-31T02:31:45;22.80;44.10
53314;DHT22;39202;51.468;7.146;2023-03-31T02:36:48;22.80;44.10
53314;DHT22;39202;51.468;7.146;2023-03-31T02:41:51;22.80;44.10
53314;DHT22;39202;51.468;7.146;2023-03-31T02:46:53;22.80;44.10
53314;DHT22;39202;51.468;7.146;2023-03-31T02:52:08;22.80;44.10
53314;DHT22;39202;51.468;7.146;2023-03-31T02:57:33;22.80;44.20
53314;DHT22;39202;51.468;7.146;2023-03-31T03:02:49;22.80;44.20
53314;DHT22;39202;51.468;7.146;2023-03-31T03:07:58;22.70;44.10
53314;DHT22;39202;51.468;7.146;2023-03-31T03:13:09;22.80;44.20
53314;DHT22;39202;51.468;7.146;2023-03-31T03:18:15;22.80;44.10
53314;DHT22;39202;51.468;7.146;2023-03-31T03:23:18;22.80;44.20
53314;DHT22;39202;51.468;7.146;2023-03-31T03:28:21;22.80;44.10
53314;DHT22;39202;51.468;7.146;2023-03-31T03:33:23;22.70;44.10
53314;DHT22;39202;51.468;7.146;2023-03-31T03:38:25;22.70;44.10
53314;DHT22;39202;51.468;7.146;2023-03-31T03:43:28;22.70;44.10
53314;DHT22;39202;51.468;7.146;2023-03-31T03:48:30;22.70;44.20
53314;DHT22;39202;51.468;7.146;2023-03-31T03:53:31;22.70;44.20
53314;DHT22;39202;51.468;7.146;2023-03-31T03:58:34;22.70;44.20
53314;DHT22;39202;51.468;7.146;2023-03-31T04:03:36;22.70;44.20
53314;DHT22;39202;51.468;7.146;2023-03-31T04:08:38;22.70;44.20
53314;DHT22;39202;51.468;7.146;2023-03-31T04:13:41;22.70;44.20
53314;DHT22;39202;51.468;7.146;2023-03-31T04:18:43;22.70;44.20
53314;DHT22;39202;51.468;7.146;2023-03-31T04:23:45;22.60;44.20
53314;DHT22;39202;51.468;7.146;2023-03-31T04:28:48;22.60;44.20
53314;DHT22;39202;51.468;7.146;2023-03-31T04:33:50;22.60;44.20
53314;DHT22;39202;51.468;7.146;2023-03-31T04:38:51;22.60;44.20
53314;DHT22;39202;51.468;7.146;2023-03-31T04:43:55;22.60;44.20
53314;DHT22;39202;51.468;7.146;2023-03-31T04:48:57;22.60;44.20
53314;DHT22;39202;51.468;7.146;2023-03-31T04:54:00;22.60;44.20
53314;DHT22;39202;51.468;7.146;2023-03-31T04:59:03;22.60;44.20
53314;DHT22;39202;51.468;7.146;2023-03-31T05:04:05;22.60;44.20
53314;DHT22;39202;51.468;7.146;2023-03-31T05:09:07;22.50;44.20
53314;DHT22;39202;51.468;7.146;2023-03-31T05:14:11;22.50;44.20
53314;DHT22;39202;51.468;7.146;2023-03-31T05:19:13;22.50;44.20
53314;DHT22;39202;51.468;7.146;2023-03-31T05:24:15;22.50;44.20
53314;DHT22;39202;51.468;7.146;2023-03-31T05:29:18;22.50;44.20
53314;DHT22;39202;51.468;7.146;2023-03-31T05:34:20;22.60;44.20
53314;DHT22;39202;51.468;7.146;2023-03-31T05:39:21;22.50;44.10
53314;DHT22;39202;51.468;7.146;2023-03-31T05:44:24;22.50;44.20
53314;DHT22;39202;51.468;7.146;2023-03-31T05:49:27;22.50;44.20
53314;DHT22;39202;51.468;7.146;2023-03-31T05:54:28;22.50;44.20
53314;DHT22;39202;51.468;7.146;2023-03-31T05:59:31;22.50;44.20
53314;DHT22;39202;51.468;7.146;2023-03-31T06:04:35;22.50;44.20
53314;DHT22;39202;51.468;7.146;2023-03-31T06:09:36;22.50;44.30
53314;DHT22;39202;51.468;7.146;2023-03-31T06:14:39;22.50;44.40
53314;DHT22;39202;51.468;7.146;2023-03-31T06:19:41;22.50;44.40
53314;DHT22;39202;51.468;7.146;2023-03-31T06:24:43;22.50;44.50
53314;DHT22;39202;51.468;7.146;2023-03-31T06:29:46;22.50;44.60
53314;DHT22;39202;51.468;7.146;2023-03-31T06:34:49;22.50;44.60
53314;DHT22;39202;51.468;7.146;2023-03-31T06:39:51;22.60;44.80
53314;DHT22;39202;51.468;7.146;2023-03-31T06:44:54;22.60;44.80
53314;DHT22;39202;51.468;7.146;2023-03-31T06:49:56;22.70;45.20
53314;DHT22;39202;51.468;7.146;2023-03-31T06:54:57;22.80;45.30
53314;DHT22;39202;51.468;7.146;2023-03-31T07:00:01;22.90;45.30
53314;DHT22;39202;51.468;7.146;2023-03-31T07:05:03;23.00;45.30
53314;DHT22;39202;51.468;7.146;2023-03-31T07:10:06;23.10;45.40
53314;DHT22;39202;51.468;7.146;2023-03-31T07:15:10;23.20;45.40
53314;DHT22;39202;51.468;7.146;2023-03-31T07:20:13;23.30;45.40
53314;DHT22;39202;51.468;7.146;2023-03-31T07:25:16;23.40;45.40
53314;DHT22;39202;51.468;7.146;2023-03-31T07:30:19;23.40;45.40
53314;DHT22;39202;51.468;7.146;2023-03-31T07:35:22;23.50;45.30
53314;DHT22;39202;51.468;7.146;2023-03-31T07:40:26;23.60;45.40
53314;DHT22;39202;51.468;7.146;2023-03-31T07:45:29;23.60;45.30
53314;DHT22;39202;51.468;7.146;2023-03-31T07:50:31;23.70;45.20
53314;DHT22;39202;51.468;7.146;2023-03-31T07:55:33;23.80;45.20
53314;DHT22;39202;51.468;7.146;2023-03-31T08:00:36;23.80;45.10
53314;DHT22;39202;51.468;7.146;2023-03-31T08:05:38;23.90;45.20
53314;DHT22;39202;51.468;7.146;2023-03-31T08:10:39;23.90;45.10
53314;DHT22;39202;51.468;7.146;2023-03-31T08:15:42;23.90;45.10
53314;DHT22;39202;51.468;7.146;2023-03-31T08:20:44;23.90;45.10
53314;DHT22;39202;51.468;7.146;2023-03-31T08:25:49;24.00;45.00
53314;DHT22;39202;51.468;7.146;2023-03-31T08:30:52;24.00;45.00
53314;DHT22;39202;51.468;7.146;2023-03-31T08:35:54;24.10;45.00
53314;DHT22;39202;51.468;7.146;2023-03-31T08:40:58;24.10;44.80
53314;DHT22;39202;51.468;7.146;2023-03-31T08:46:03;24.10;44.80
53314;DHT22;39202;51.468;7.146;2023-03-31T08:51:10;24.10;44.80
53314;DHT22;39202;51.468;7.146;2023-03-31T08:56:15;24.10;44.90
53314;DHT22;39202;51.468;7.146;2023-03-31T09:01:25;24.10;44.90
53314;DHT22;39202;51.468;7.146;2023-03-31T09:06:35;24.10;45.00
53314;DHT22;39202;51.468;7.146;2023-03-31T09:11:39;24.10;45.10
53314;DHT22;39202;51.468;7.146;2023-03-31T09:16:48;24.20;45.20
53314;DHT22;39202;51.468;7.146;2023-03-31T09:21:53;24.20;45.30
53314;DHT22;39202;51.468;7.146;2023-03-31T09:26:58;24.20;45.30
53314;DHT22;39202;51.468;7.146;2023-03-31T09:32:08;24.20;45.20
53314;DHT22;39202;51.468;7.146;2023-03-31T09:37:14;24.30;45.20
53314;DHT22;39202;51.468;7.146;2023-03-31T09:42:16;24.30;45.20
53314;DHT22;39202;51.468;7.146;2023-03-31T09:47:28;24.30;45.20
53314;DHT22;39202;51.468;7.146;2023-03-31T09:52:33;24.30;45.20
53314;DHT22;39202;51.468;7.146;2023-03-31T09:57:38;24.30;45.20
53314;DHT22;39202;51.468;7.146;2023-03-31T10:02:43;24.40;45.20
53314;DHT22;39202;51.468;7.146;2023-03-31T10:07:45;24.30;45.00
53314;DHT22;39202;51.468;7.146;2023-03-31T10:12:50;24.40;45.00
53314;DHT22;39202;51.468;7.146;2023-03-31T10:17:57;24.30;44.90
53314;DHT22;39202;51.468;7.146;2023-03-31T10:23:02;24.30;44.90
53314;DHT22;39202;51.468;7.146;2023-03-31T10:28:05;24.30;44.80
53314;DHT22;39202;51.468;7.146;2023-03-31T10:33:13;24.30;44.80
53314;DHT22;39202;51.468;7.146;2023-03-31T10:38:24;24.30;44.80
53314;DHT22;39202;51.468;7.146;2023-03-31T10:43:28;24.30;44.80
53314;DHT22;39202;51.468;7.146;2023-03-31T10:48:34;24.30;44.80
53314;DHT22;39202;51.468;7.146;2023-03-31T10:53:40;24.30;44.70
53314;DHT22;39202;51.468;7.146;2023-03-31T10:58:55;24.30;44.70
53314;DHT22;39202;51.468;7.146;2023-03-31T11:04:18;24.30;44.70
53314;DHT22;39202;51.468;7.146;2023-03-31T11:09:33;24.20;44.70
53314;DHT22;39202;51.468;7.146;2023-03-31T11:14:51;24.30;44.70
53314;DHT22;39202;51.468;7.146;2023-03-31T11:20:02;24.30;44.80
53314;DHT22;39202;51.468;7.146;2023-03-31T11:25:17;24.30;44.70
53314;DHT22;39202;51.468;7.146;2023-03-31T11:30:24;24.30;44.70
53314;DHT22;39202;51.468;7.146;2023-03-31T11:35:57;24.20;44.60
53314;DHT22;39202;51.468;7.146;2023-03-31T11:41:05;24.20;44.60
53314;DHT22;39202;51.468;7.146;2023-03-31T11:46:12;24.20;44.60
53314;DHT22;39202;51.468;7.146;2023-03-31T11:51:19;24.20;44.60
53314;DHT22;39202;51.468;7.146;2023-03-31T11:56:24;24.30;44.70
53314;DHT22;39202;51.468;7.146;2023-03-31T12:01:29;24.30;44.60
53314;DHT22;39202;51.468;7.146;2023-03-31T12:06:38;24.30;44.60
53314;DHT22;39202;51.468;7.146;2023-03-31T12:11:45;24.30;44.70
53314;DHT22;39202;51.468;7.146;2023-03-31T12:16:50;24.30;44.60
53314;DHT22;39202;51.468;7.146;2023-03-31T12:21:57;24.30;44.60
53314;DHT22;39202;51.468;7.146;2023-03-31T12:27:10;24.30;44.60
53314;DHT22;39202;51.468;7.146;2023-03-31T12:32:15;24.30;44.50
53314;DHT22;39202;51.468;7.146;2023-03-31T12:37:49;24.20;44.40
53314;DHT22;39202;51.468;7.146;2023-03-31T12:43:07;24.20;44.30
53314;DHT22;39202;51.468;7.146;2023-03-31T12:53:57;24.20;44.30
53314;DHT22;39202;51.468;7.146;2023-03-31T12:59:30;24.20;44.20
53314;DHT22;39202;51.468;7.146;2023-03-31T13:04:32;24.20;44.40
53314;DHT22;39202;51.468;7.146;2023-03-31T13:09:43;24.10;44.30
53314;DHT22;39202;51.468;7.146;2023-03-31T13:14:46;24.10;44.40
53314;DHT22;39202;51.468;7.146;2023-03-31T13:19:51;24.10;44.50
53314;DHT22;39202;51.468;7.146;2023-03-31T13:30:54;24.10;44.70
53314;DHT22;39202;51.468;7.146;2023-03-31T13:36:12;24.10;44.60
53314;DHT22;39202;51.468;7.146;2023-03-31T13:41:29;24.10;44.70
53314;DHT22;39202;51.468;7.146;2023-03-31T13:46:48;24.20;44.60
53314;DHT22;39202;51.468;7.146;2023-03-31T13:51:55;24.20;44.60
53314;DHT22;39202;51.468;7.146;2023-03-31T13:57:19;24.20;44.50
53314;DHT22;39202;51.468;7.146;2023-03-31T14:02:48;24.20;44.60
53314;DHT22;39202;51.468;7.146;2023-03-31T14:07:55;24.20;45.30
53314;DHT22;39202;51.468;7.146;2023-03-31T14:13:09;24.20;44.70
53314;DHT22;39202;51.468;7.146;2023-03-31T14:18:14;24.30;44.90
53314;DHT22;39202;51.468;7.146;2023-03-31T14:23:25;24.30;44.90
53314;DHT22;39202;51.468;7.146;2023-03-31T14:28:50;24.30;45.00
53314;DHT22;39202;51.468;7.146;2023-03-31T14:34:11;24.40;45.00
53314;DHT22;39202;51.468;7.146;2023-03-31T14:39:19;24.40;44.90
53314;DHT22;39202;51.468;7.146;2023-03-31T14:44:24;24.50;44.80
53314;DHT22;39202;51.468;7.146;2023-03-31T14:49:28;24.50;44.70
53314;DHT22;39202;51.468;7.146;2023-03-31T14:54:33;24.50;44.70
53314;DHT22;39202;51.468;7.146;2023-03-31T14:59:38;24.50;44.60
53314;DHT22;39202;51.468;7.146;2023-03-31T15:04:40;24.50;44.50
53314;DHT22;39202;51.468;7.146;2023-03-31T15:09:48;24.50;44.50
53314;DHT22;39202;51.468;7.146;2023-03-31T15:14:54;24.50;44.40
53314;DHT22;39202;51.468;7.146;2023-03-31T15:19:59;24.50;44.40
53314;DHT22;39202;51.468;7.146;2023-03-31T15:25:04;24.50;44.30
53314;DHT22;39202;51.468;7.146;2023-03-31T15:30:13;24.50;44.40
53314;DHT22;39202;51.468;7.146;2023-03-31T15:35:20;24.50;44.40
53314;DHT22;39202;51.468;7.146;2023-03-31T15:40:25;24.40;44.30
53314;DHT22;39202;51.468;7.146;2023-03-31T15:45:53;24.40;44.30
53314;DHT22;39202;51.468;7.146;2023-03-31T15:50:59;24.40;44.30
53314;DHT22;39202;51.468;7.146;2023-03-31T15:56:03;24.40;44.30
53314;DHT22;39202;51.468;7.146;2023-03-31T16:01:06;24.30;44.20
53314;DHT22;39202;51.468;7.146;2023-03-31T16:06:14;24.30;44.20
53314;DHT22;39202;51.468;7.146;2023-03-31T16:11:18;24.30;44.20
53314;DHT22;39202;51.468;7.146;2023-03-31T16:16:23;24.30;44.30
53314;DHT22;39202;51.468;7.146;2023-03-31T16:21:30;24.30;44.20
53314;DHT22;39202;51.468;7.146;2023-03-31T16:26:35;24.30;44.90
53314;DHT22;39202;51.468;7.146;2023-03-31T16:31:39;24.30;44.20
53314;DHT22;39202;51.468;7.146;2023-03-31T16:36:41;24.30;44.20
53314;DHT22;39202;51.468;7.146;2023-03-31T16:41:43;24.30;44.20
53314;DHT22;39202;51.468;7.146;2023-03-31T16:46:46;24.30;44.20
53314;DHT22;39202;51.468;7.146;2023-03-31T16:51:47;24.20;44.20
53314;DHT22;39202;51.468;7.146;2023-03-31T16:56:49;24.20;44.20
53314;DHT22;39202;51.468;7.146;2023-03-31T17:01:52;24.20;44.20
53314;DHT22;39202;51.468;7.146;2023-03-31T17:06:54;24.20;44.20
53314;DHT22;39202;51.468;7.146;2023-03-31T17:11:56;24.20;44.20
53314;DHT22;39202;51.468;7.146;2023-03-31T17:16:59;24.10;44.10
53314;DHT22;39202;51.468;7.146;2023-03-31T17:22:01;24.10;44.20
53314;DHT22;39202;51.468;7.146;2023-03-31T17:27:03;24.10;44.10
53314;DHT22;39202;51.468;7.146;2023-03-31T17:32:06;24.10;44.20
53314;DHT22;39202;51.468;7.146;2023-03-31T17:37:09;24.00;44.10
53314;DHT22;39202;51.468;7.146;2023-03-31T17:42:12;24.00;44.10
53314;DHT22;39202;51.468;7.146;2023-03-31T17:47:15;24.00;44.20
53314;DHT22;39202;51.468;7.146;2023-03-31T17:52:17;24.00;44.20
53314;DHT22;39202;51.468;7.146;2023-03-31T17:57:19;24.00;44.20
53314;DHT22;39202;51.468;7.146;2023-03-31T18:02:22;23.90;44.10
53314;DHT22;39202;51.468;7.146;2023-03-31T18:07:24;23.90;44.10
53314;DHT22;39202;51.468;7.146;2023-03-31T18:12:27;23.90;44.10
53314;DHT22;39202;51.468;7.146;2023-03-31T18:17:30;23.90;44.20
53314;DHT22;39202;51.468;7.146;2023-03-31T18:22:32;23.90;44.20
53314;DHT22;39202;51.468;7.146;2023-03-31T18:27:33;23.90;44.20
53314;DHT22;39202;51.468;7.146;2023-03-31T18:32:36;23.80;44.10
53314;DHT22;39202;51.468;7.146;2023-03-31T18:37:38;23.80;44.20
53314;DHT22;39202;51.468;7.146;2023-03-31T18:42:40;23.80;44.10
53314;DHT22;39202;51.468;7.146;2023-03-31T18:47:43;23.80;44.10
53314;DHT22;39202;51.468;7.146;2023-03-31T18:52:45;23.80;44.20
53314;DHT22;39202;51.468;7.146;2023-03-31T18:57:47;23.80;44.20
53314;DHT22;39202;51.468;7.146;2023-03-31T19:02:50;23.80;44.10
53314;DHT22;39202;51.468;7.146;2023-03-31T19:07:52;23.80;44.10
53314;DHT22;39202;51.468;7.146;2023-03-31T19:12:55;23.80;44.10
53314;DHT22;39202;51.468;7.146;2023-03-31T19:17:58;23.80;44.10
53314;DHT22;39202;51.468;7.146;2023-03-31T19:22:59;23.70;44.10
53314;DHT22;39202;51.468;7.146;2023-03-31T19:28:01;23.70;44.10
53314;DHT22;39202;51.468;7.146;2023-03-31T19:33:04;23.70;44.10
53314;DHT22;39202;51.468;7.146;2023-03-31T19:38:06;23.70;44.10
53314;DHT22;39202;51.468;7.146;2023-03-31T19:43:14;23.60;44.10
53314;DHT22;39202;51.468;7.146;2023-03-31T19:48:20;23.60;44.10
53314;DHT22;39202;51.468;7.146;2023-03-31T19:53:22;23.60;44.10
53314;DHT22;39202;51.468;7.146;2023-03-31T19:58:24;23.60;44.20
53314;DHT22;39202;51.468;7.146;2023-03-31T20:03:27;23.60;44.20
53314;DHT22;39202;51.468;7.146;2023-03-31T20:08:29;23.50;44.20
53314;DHT22;39202;51.468;7.146;2023-03-31T20:13:32;23.50;44.20
53314;DHT22;39202;51.468;7.146;2023-03-31T20:18:36;23.50;44.20
53314;DHT22;39202;51.468;7.146;2023-03-31T20:23:40;23.50;44.20
53314;DHT22;39202;51.468;7.146;2023-03-31T20:28:43;23.50;44.80
53314;DHT22;39202;51.468;7.146;2023-03-31T20:33:47;23.60;44.10
53314;DHT22;39202;51.468;7.146;2023-03-31T20:38:51;23.50;44.00
53314;DHT22;39202;51.468;7.146;2023-03-31T20:43:54;23.50;44.10
53314;DHT22;39202;51.468;7.146;2023-03-31T20:48:57;23.50;44.10
53314;DHT22;39202;51.468;7.146;2023-03-31T20:54:00;23.50;44.20
53314;DHT22;39202;51.468;7.146;2023-03-31T20:59:02;23.40;44.10
53314;DHT22;39202;51.468;7.146;2023-03-31T21:04:07;23.40;44.20
53314;DHT22;39202;51.468;7.146;2023-03-31T21:09:10;23.40;44.20
53314;DHT22;39202;51.468;7.146;2023-03-31T21:14:14;23.40;44.20
53314;DHT22;39202;51.468;7.146;2023-03-31T21:19:17;23.40;44.20
53314;DHT22;39202;51.468;7.146;2023-03-31T21:24:19;23.40;44.20
53314;DHT22;39202;51.468;7.146;2023-03-31T21:29:21;23.30;44.20
53314;DHT22;39202;51.468;7.146;2023-03-31T21:34:25;23.30;44.20
53314;DHT22;39202;51.468;7.146;2023-03-31T21:39:26;23.30;44.20
53314;DHT22;39202;51.468;7.146;2023-03-31T21:44:28;23.30;44.20
53314;DHT22;39202;51.468;7.146;2023-03-31T21:49:31;23.30;44.20
53314;DHT22;39202;51.468;7.146;2023-03-31T21:54:33;23.30;44.20
53314;DHT22;39202;51.468;7.146;2023-03-31T21:59:35;23.30;44.20
53314;DHT22;39202;51.468;7.146;2023-03-31T22:04:38;23.20;44.20
53314;DHT22;39202;51.468;7.146;2023-03-31T22:09:39;23.20;44.20
53314;DHT22;39202;51.468;7.146;2023-03-31T22:14:41;23.20;44.20
53314;DHT22;39202;51.468;7.146;2023-03-31T22:19:44;23.20;44.20
53314;DHT22;39202;51.468;7.146;2023-03-31T22:24:46;23.20;44.30
53314;DHT22;39202;51.468;7.146;2023-03-31T22:29:48;23.20;44.20
53314;DHT22;39202;51.468;7.146;2023-03-31T22:34:51;23.20;44.30
53314;DHT22;39202;51.468;7.146;2023-03-31T22:39:53;23.20;44.30
53314;DHT22;39202;51.468;7.146;2023-03-31T22:44:54;23.20;44.30
53314;DHT22;39202;51.468;7.146;2023-03-31T22:49:57;23.20;44.30
53314;DHT22;39202;51.468;7.146;2023-03-31T22:54:59;23.10;44.20
53314;DHT22;39202;51.468;7.146;2023-03-31T23:00:02;23.10;44.20
53314;DHT22;39202;51.468;7.146;2023-03-31T23:05:06;23.10;44.30
53314;DHT22;39202;51.468;7.146;2023-03-31T23:10:08;23.10;44.30
53314;DHT22;39202;51.468;7.146;2023-03-31T23:15:10;23.10;44.30
53314;DHT22;39202;51.468;7.146;2023-03-31T23:20:13;23.10;44.30
53314;DHT22;39202;51.468;7.146;2023-03-31T23:25:15;23.10;44.30
53314;DHT22;39202;51.468;7.146;2023-03-31T23:30:17;23.10;44.30
53314;DHT22;39202;51.468;7.146;2023-03-31T23:35:20;23.10;44.30
53314;DHT22;39202;51.468;7.146;2023-03-31T23:40:22;23.00;44.30
53314;DHT22;39202;51.468;7.146;2023-03-31T23:45:23;23.00;44.30
53314;DHT22;39202;51.468;7.146;2023-03-31T23:50:27;23.00;44.30
53314;DHT22;39202;51.468;7.146;2023-03-31T23:55:28;23.00;44.30
